Royal Clipper — 9HA2796 — position and weather

sailwx.info

Track history (hours):
 
Tides and Currents Weather Stations Pressure Air Temp Water Temp Dewpoint Dewpoint Depression Visibility Wind Speed Wind Dir Waves Ship Positions

Royal Clipper

Last reported at 2017-Aug-20 01:28 UTC. Time now 2017-Aug-22 22:32 UTC.
Position N 42°00' E 010°53'.

Length 137 m; draft 6 m.

Type: Ship. MMSI: 215813000.

Date/timePositionNaut miles runAvg speedWind from/ knotsBaromVisibWave heightAir tempDewpointWater temp
2017-Aug-20 01:28N 42°00' E 010°53'80 2.8
2017-Aug-18 21:28N 41°22' E 012°27'5 9.5
2017-Aug-18 20:58N 41°19' E 012°31'4 9.4
2017-Aug-18 20:30N 41°15' E 012°35'20 9.5
2017-Aug-18 18:22N 40°60' E 012°52'4 0.6
2017-Aug-18 12:01N 40°56' E 012°53'0 3.2
2017-Aug-18 11:58N 40°56' E 012°53'3 5.7
2017-Aug-18 11:30N 40°54' E 012°55'23 3.0
2017-Aug-18 03:50N 40°44' E 013°22'4 7.5
2017-Aug-18 03:20N 40°43' E 013°27'14 7.9
2017-Aug-18 01:36N 40°40' E 013°45'2 8.2
2017-Aug-18 01:22N 40°40' E 013°47'3 8.0
2017-Aug-18 01:00N 40°39' E 013°51'6 8.1
2017-Aug-18 00:16N 40°39' E 013°59'2 8.1
2017-Aug-18 00:01N 40°39' E 014°02'4 8.7
2017-Aug-17 23:30N 40°39' E 014°07'12 2.9
2017-Aug-17 19:27N 40°38' E 014°23'0 0.0
2017-Aug-17 19:00N 40°38' E 014°23'0 0.0
2017-Aug-17 18:30N 40°38' E 014°23'0 0.0
2017-Aug-17 18:00N 40°38' E 014°23'0 0.0
2017-Aug-17 17:30N 40°38' E 014°23'0 0.0
2017-Aug-17 17:00N 40°38' E 014°23'0 0.0
2017-Aug-17 16:30N 40°38' E 014°23'0 0.0
2017-Aug-17 16:00N 40°38' E 014°23'0 0.0
2017-Aug-17 15:21N 40°38' E 014°23'0 0.0
2017-Aug-17 14:51N 40°38' E 014°23'0 0.0
2017-Aug-17 14:24N 40°38' E 014°23'0 0.0
2017-Aug-17 13:54N 40°38' E 014°23'0 0.0
2017-Aug-17 13:24N 40°38' E 014°23'0 0.0
2017-Aug-17 12:54N 40°38' E 014°23'0 0.0
2017-Aug-17 12:24N 40°38' E 014°23'0 0.0
2017-Aug-17 11:57N 40°38' E 014°23'0 0.0
2017-Aug-17 11:27N 40°38' E 014°23'0 0.0
2017-Aug-17 10:57N 40°38' E 014°23'0 0.0
2017-Aug-17 10:27N 40°38' E 014°23'0 0.1
2017-Aug-17 09:57N 40°38' E 014°23'0 0.0
2017-Aug-17 09:27N 40°38' E 014°23'0 0.2
2017-Aug-17 09:00N 40°38' E 014°23'3 6.9
2017-Aug-17 08:30N 40°38' E 014°18'11710.6
2017-Aug-16 21:27N 38°48' E 015°11'1310.7
2017-Aug-16 20:11N 38°37' E 015°22'413.1
2017-Aug-16 19:52N 38°34' E 015°25'713.3
2017-Aug-16 19:20N 38°28' E 015°31'413.1
2017-Aug-16 19:00N 38°25' E 015°34'713.2
2017-Aug-16 18:30N 38°20' E 015°40'510.0
2017-Aug-16 18:00N 38°15' E 015°40'5 9.6
2017-Aug-16 17:30N 38°11' E 015°36'611.0
2017-Aug-16 16:59N 38°06' E 015°34'511.2
2017-Aug-16 16:30N 38°02' E 015°29'611.8
2017-Aug-16 16:00N 37°57' E 015°25'611.5
2017-Aug-16 15:29N 37°52' E 015°20'4 0.4
2017-Aug-16 05:44N 37°50' E 015°17'1 2.5
2017-Aug-16 05:30N 37°50' E 015°17'4 7.7
2017-Aug-16 05:00N 37°50' E 015°22'4 7.5
2017-Aug-16 04:30N 37°50' E 015°27'4 7.8
2017-Aug-16 04:01N 37°51' E 015°32'4 7.8
2017-Aug-16 03:30N 37°51' E 015°37'4 7.7
2017-Aug-16 03:00N 37°51' E 015°42'3 6.8
2017-Aug-16 02:30N 37°51' E 015°46'4 7.4
2017-Aug-16 01:59N 37°51' E 015°51'4 7.6
2017-Aug-16 01:26N 37°51' E 015°56'  
2017-Aug-10 20:57N 44°30' E 014°11'812.9
2017-Aug-10 20:22N 44°35' E 014°04'512.7
2017-Aug-10 20:00N 44°38' E 013°59'913.0
2017-Aug-10 19:20N 44°44' E 013°50'413.0
2017-Aug-10 19:00N 44°47' E 013°46'712.8
2017-Aug-10 18:29N 44°53' E 013°41'612.9
2017-Aug-10 18:00N 44°59' E 013°38'510.4
2017-Aug-10 17:31N 45°04' E 013°37'2 2.9
2017-Aug-10 16:59N 45°05' E 013°37'0 0.1
2017-Aug-10 16:29N 45°05' E 013°37'0 0.1
2017-Aug-10 15:56N 45°05' E 013°37'0 0.1
2017-Aug-10 15:26N 45°05' E 013°37'0 0.1
2017-Aug-10 14:59N 45°05' E 013°37'0 0.9
2017-Aug-10 14:29N 45°05' E 013°38'0 0.2
2017-Aug-10 13:47N 45°05' E 013°37'0 0.0
2017-Aug-10 13:29N 45°05' E 013°37'0 0.0
2017-Aug-10 12:59N 45°05' E 013°37'0 0.0
2017-Aug-10 12:26N 45°05' E 013°37'0 0.0
2017-Aug-10 11:53N 45°05' E 013°37'0 0.0
2017-Aug-10 11:17N 45°05' E 013°37'0 0.0
2017-Aug-10 10:59N 45°05' E 013°37'0 0.0
2017-Aug-10 10:29N 45°05' E 013°37'0 0.2
2017-Aug-10 09:59N 45°05' E 013°37'0 0.1
2017-Aug-10 09:30N 45°05' E 013°37'1 2.9
2017-Aug-10 09:00N 45°05' E 013°35'2 3.5
2017-Aug-10 08:30N 45°05' E 013°33'2 3.7
2017-Aug-10 08:00N 45°06' E 013°30'2 3.4
2017-Aug-10 07:30N 45°06' E 013°28'2 3.6
2017-Aug-10 07:00N 45°06' E 013°25'2 3.5
2017-Aug-10 06:30N 45°06' E 013°23'2 3.3
2017-Aug-10 06:00N 45°06' E 013°21'2 3.5
2017-Aug-10 05:30N 45°06' E 013°18'2 3.5
2017-Aug-10 05:00N 45°06' E 013°16'2 3.5
2017-Aug-10 04:30N 45°06' E 013°13'2 2.9
2017-Aug-10 03:53N 45°06' E 013°11'1 3.2
2017-Aug-10 03:30N 45°06' E 013°09'2 3.1
2017-Aug-10 03:00N 45°06' E 013°07'2 3.2
2017-Aug-10 02:30N 45°07' E 013°04'2 3.1
2017-Aug-10 01:59N 45°07' E 013°02'2 3.2
2017-Aug-10 01:30N 45°07' E 012°60'  
Track history (hours):
 
Tides and Currents Weather Stations Pressure Air Temp Water Temp Dewpoint Dewpoint Depression Visibility Wind Speed Wind Dir Waves Ship Positions

Royal Clipper

Last reported at 2017-Aug-20 01:28 UTC. Time now 2017-Aug-22 22:32 UTC.
Position N 42°00' E 010°53'.

Length 137 m; draft 6 m.

Type: Ship. MMSI: 215813000.

Date/timePositionNaut miles runAvg speedWind from/ knotsBaromVisibWave heightAir tempDewpointWater temp
2017-Aug-20 01:28N 42°00' E 010°53'80 2.8
2017-Aug-18 21:28N 41°22' E 012°27'5 9.5
2017-Aug-18 20:58N 41°19' E 012°31'4 9.4
2017-Aug-18 20:30N 41°15' E 012°35'20 9.5
2017-Aug-18 18:22N 40°60' E 012°52'4 0.6
2017-Aug-18 12:01N 40°56' E 012°53'0 3.2
2017-Aug-18 11:58N 40°56' E 012°53'3 5.7
2017-Aug-18 11:30N 40°54' E 012°55'23 3.0
2017-Aug-18 03:50N 40°44' E 013°22'4 7.5
2017-Aug-18 03:20N 40°43' E 013°27'14 7.9
2017-Aug-18 01:36N 40°40' E 013°45'2 8.2
2017-Aug-18 01:22N 40°40' E 013°47'3 8.0
2017-Aug-18 01:00N 40°39' E 013°51'6 8.1
2017-Aug-18 00:16N 40°39' E 013°59'2 8.1
2017-Aug-18 00:01N 40°39' E 014°02'4 8.7
2017-Aug-17 23:30N 40°39' E 014°07'12 2.9
2017-Aug-17 19:27N 40°38' E 014°23'0 0.0
2017-Aug-17 19:00N 40°38' E 014°23'0 0.0
2017-Aug-17 18:30N 40°38' E 014°23'0 0.0
2017-Aug-17 18:00N 40°38' E 014°23'0 0.0
2017-Aug-17 17:30N 40°38' E 014°23'0 0.0
2017-Aug-17 17:00N 40°38' E 014°23'0 0.0
2017-Aug-17 16:30N 40°38' E 014°23'0 0.0
2017-Aug-17 16:00N 40°38' E 014°23'0 0.0
2017-Aug-17 15:21N 40°38' E 014°23'0 0.0
2017-Aug-17 14:51N 40°38' E 014°23'0 0.0
2017-Aug-17 14:24N 40°38' E 014°23'0 0.0
2017-Aug-17 13:54N 40°38' E 014°23'0 0.0
2017-Aug-17 13:24N 40°38' E 014°23'0 0.0
2017-Aug-17 12:54N 40°38' E 014°23'0 0.0
2017-Aug-17 12:24N 40°38' E 014°23'0 0.0
2017-Aug-17 11:57N 40°38' E 014°23'0 0.0
2017-Aug-17 11:27N 40°38' E 014°23'0 0.0
2017-Aug-17 10:57N 40°38' E 014°23'0 0.0
2017-Aug-17 10:27N 40°38' E 014°23'0 0.1
2017-Aug-17 09:57N 40°38' E 014°23'0 0.0
2017-Aug-17 09:27N 40°38' E 014°23'0 0.2
2017-Aug-17 09:00N 40°38' E 014°23'3 6.9
2017-Aug-17 08:30N 40°38' E 014°18'11710.6
2017-Aug-16 21:27N 38°48' E 015°11'1310.7
2017-Aug-16 20:11N 38°37' E 015°22'413.1
2017-Aug-16 19:52N 38°34' E 015°25'713.3
2017-Aug-16 19:20N 38°28' E 015°31'413.1
2017-Aug-16 19:00N 38°25' E 015°34'713.2
2017-Aug-16 18:30N 38°20' E 015°40'510.0
2017-Aug-16 18:00N 38°15' E 015°40'5 9.6
2017-Aug-16 17:30N 38°11' E 015°36'611.0
2017-Aug-16 16:59N 38°06' E 015°34'511.2
2017-Aug-16 16:30N 38°02' E 015°29'611.8
2017-Aug-16 16:00N 37°57' E 015°25'611.5
2017-Aug-16 15:29N 37°52' E 015°20'4 0.4
2017-Aug-16 05:44N 37°50' E 015°17'1 2.5
2017-Aug-16 05:30N 37°50' E 015°17'4 7.7
2017-Aug-16 05:00N 37°50' E 015°22'4 7.5
2017-Aug-16 04:30N 37°50' E 015°27'4 7.8
2017-Aug-16 04:01N 37°51' E 015°32'4 7.8
2017-Aug-16 03:30N 37°51' E 015°37'4 7.7
2017-Aug-16 03:00N 37°51' E 015°42'3 6.8
2017-Aug-16 02:30N 37°51' E 015°46'4 7.4
2017-Aug-16 01:59N 37°51' E 015°51'4 7.6
2017-Aug-16 01:26N 37°51' E 015°56'  
2017-Aug-10 20:57N 44°30' E 014°11'812.9
2017-Aug-10 20:22N 44°35' E 014°04'512.7
2017-Aug-10 20:00N 44°38' E 013°59'913.0
2017-Aug-10 19:20N 44°44' E 013°50'413.0
2017-Aug-10 19:00N 44°47' E 013°46'712.8
2017-Aug-10 18:29N 44°53' E 013°41'612.9
2017-Aug-10 18:00N 44°59' E 013°38'510.4
2017-Aug-10 17:31N 45°04' E 013°37'2 2.9
2017-Aug-10 16:59N 45°05' E 013°37'0 0.1
2017-Aug-10 16:29N 45°05' E 013°37'0 0.1
2017-Aug-10 15:56N 45°05' E 013°37'0 0.1
2017-Aug-10 15:26N 45°05' E 013°37'0 0.1
2017-Aug-10 14:59N 45°05' E 013°37'0 0.9
2017-Aug-10 14:29N 45°05' E 013°38'0 0.2
2017-Aug-10 13:47N 45°05' E 013°37'0 0.0
2017-Aug-10 13:29N 45°05' E 013°37'0 0.0
2017-Aug-10 12:59N 45°05' E 013°37'0 0.0
2017-Aug-10 12:26N 45°05' E 013°37'0 0.0
2017-Aug-10 11:53N 45°05' E 013°37'0 0.0
2017-Aug-10 11:17N 45°05' E 013°37'0 0.0
2017-Aug-10 10:59N 45°05' E 013°37'0 0.0
2017-Aug-10 10:29N 45°05' E 013°37'0 0.2
2017-Aug-10 09:59N 45°05' E 013°37'0 0.1
2017-Aug-10 09:30N 45°05' E 013°37'1 2.9
2017-Aug-10 09:00N 45°05' E 013°35'2 3.5
2017-Aug-10 08:30N 45°05' E 013°33'2 3.7
2017-Aug-10 08:00N 45°06' E 013°30'2 3.4
2017-Aug-10 07:30N 45°06' E 013°28'2 3.6
2017-Aug-10 07:00N 45°06' E 013°25'2 3.5
2017-Aug-10 06:30N 45°06' E 013°23'2 3.3
2017-Aug-10 06:00N 45°06' E 013°21'2 3.5
2017-Aug-10 05:30N 45°06' E 013°18'2 3.5
2017-Aug-10 05:00N 45°06' E 013°16'2 3.5
2017-Aug-10 04:30N 45°06' E 013°13'2 2.9
2017-Aug-10 03:53N 45°06' E 013°11'1 3.2
2017-Aug-10 03:30N 45°06' E 013°09'2 3.1
2017-Aug-10 03:00N 45°06' E 013°07'2 3.2
2017-Aug-10 02:30N 45°07' E 013°04'2 3.1
2017-Aug-10 01:59N 45°07' E 013°02'2 3.2
2017-Aug-10 01:30N 45°07' E 012°60'  

Dump ship's entire track history